首页
METAR-TAF:

METAR-TAF

机场 :

特雷維索, 意大利

纬度: 45-41N, 经度: 012-06E, 海拔: 45米

当前天气观测

该预报发布于29分钟前的00:55 UTC
温度 15°C
湿度 94%
气压 1018 hPa
能見度: 2500
轻雾

METAR: LIPS 170055Z /////KT 2500 BR NSC 15/14 Q1018 RMK SKC VIS MIN 2500 WIND THR26 00000KT WIND THR08 00000KT YLO

时间: 03:24 (01:24 UTC)

预报

该预报发布于2小时和24分钟前的23:00 UTC
预报有效从17日的 00点(UTC)到 17日的 09点(UTC)
风速3节,风向多变
能見度: 8000
短暂存在
从 17日的 00点(UTC)到 17日的 06点(UTC)
能見度: 3000
轻雾
几率 40% :
短暂存在
从 17日的 02点(UTC)到 17日的 06点(UTC)
能見度: 0500
阴天层高于100英尺

TAF: LIPS 162300Z 1700/1709 VRB03KT 8000 NSC TEMPO 1700/1706 3000 BR PROB40 TEMPO 1702/1706 0500 FG OVC001

超过4000个机场的气象观测和天气预报(METAR&TAF报告)。

可查询的气象台以黄色和红色小点在地图上表示。

将鼠标移到小点上方,可查看气象台名称。

然后点击查看天气观测和预报。

如需切换地图:点击带黑十字的绿色按钮放大地图;点击带横线的绿色按钮缩小地图;或者点击绿色箭头查看邻近地区的地图。


METAR-TAF: